Flight Track Log - Related Links

Times and Time Zones

All times are in EDT time to prevent confusion due to time zone crossing. See the EJA102 flight status page for this flight to view local times or setup timezone preferences in your user account.

Time Position Orientation Groundspeed Altitude Reporting Facility
EDT Latitude Longitude Course Direction KTS MPH feet Rate Location/Type
Sun 11:14:06 AM 41.7917 -70.1511 290° West 274 315 2,900  Level Boston Center
Sun 11:15:04 AM 41.8044 -70.0672 78° East 269 310 2,900 550 Level Boston Center
Sun 11:16:17 AM 41.8422 -69.9878 57° Northeast 256 295 4,100 1,985 Climbing Boston Center
Sun 11:17:00 AM 42.0763 -70.2955 294° West  Level FlightAware Approximate
Sun 11:17:17 AM 41.9258 -69.9956 356° North 208 239 7,300  Level Boston Center
Sun 11:18:00 AM 42.1145 -70.4207 290° West  Level FlightAware Approximate
Sun 11:18:18 AM 41.9975 -70.0292 341° North 227 261 10,300  Level Boston Center
Sun 11:19:00 AM 42.1485 -70.5483 290° West  Level FlightAware Approximate
Sun 11:19:18 AM 42.0414 -70.1308 300° West 227 261 12,600  Level Boston Center
Sun 11:20:16 AM 42.0661 -70.2308 288° West 257 296 14,600 1,916 Climbing Boston Center
Sun 11:21:17 AM 42.0933 -70.3389 289° West 279 321 16,400 1,587 Climbing Boston Center
Sun 11:22:17 AM 42.1222 -70.4444 290° West 294 338 17,800 1,450 Climbing Boston Center
Sun 11:23:17 AM 42.1492 -70.5528 289° West 306 352 19,300 1,488 Climbing Boston Center
Sun 11:24:18 AM 42.1739 -70.6667 286° West 306 352 20,800 1,438 Climbing Boston Center
Sun 11:25:18 AM 42.1736 -70.7844 270° West 311 358 22,200 1,350 Climbing Boston Center
Sun 11:26:18 AM 42.1669 -70.9050 266° West 317 365 23,500 1,424 Climbing Boston Center
Sun 11:27:16 AM 42.1561 -71.0231 263° West 322 371 25,000 1,475 Climbing Boston Center
Sun 11:28:16 AM 42.1469 -71.1408 264° West 322 371 26,400 1,240 Climbing Boston Center
Sun 11:29:17 AM 42.1358 -71.2586 263° West 327 376 27,500 1,041 Climbing Boston Center
Sun 11:30:17 AM 42.1225 -71.3847 262° West 334 384 28,500 950 Climbing Boston Center
Sun 11:31:17 AM 42.1111 -71.5083 263° West 334 384 29,400 843 Climbing Boston Center
Sun 11:32:18 AM 42.0994 -71.6092 261° West 339 390 30,200 893 Climbing Boston Center
Sun 11:33:18 AM 42.0856 -71.7464 262° West 339 390 31,200 1,017 Climbing Boston Center
Sun 11:34:16 AM 42.0739 -71.8750 263° West 339 390 32,200 966 Climbing Boston Center
Sun 11:35:16 AM 42.0619 -72.0039 263° West 345 397 33,100 885 Climbing Boston Center
Sun 11:36:18 AM 42.0497 -72.1297 263° West 351 404 34,000 443 Climbing Boston Center
Sun 11:37:18 AM 42.0375 -72.2611 263° West 351 404 34,000  Level Boston Center
Sun 11:38:18 AM 42.0231 -72.3953 262° West 356 410 34,000  Level Boston Center
Sun 11:39:16 AM 42.0086 -72.5322 262° West 361 415 34,000  Level Boston Center
Sun 11:40:16 AM 41.9689 -72.6550 247° West 372 428 34,000  Level Boston Center
Sun 11:41:17 AM 41.9081 -72.7747 236° Southwest 372 428 34,000  Level Boston Center
Sun 11:42:18 AM 41.8450 -72.8889 233° Southwest 382 440 34,000  Level Boston Center
Sun 11:43:16 AM 41.7800 -73.0164 236° Southwest 399 459 34,000  Level Boston Center
Sun 11:44:16 AM 41.7189 -73.1325 235° Southwest 407 468 34,000  Level Boston Center
Sun 11:45:17 AM 41.6556 -73.2486 234° Southwest 402 463 34,000  Level Boston Center
Sun 11:47:40 AM 41.5147 -73.5222 236° Southwest 382 440 34,000  Level New York Center
Sun 11:48:40 AM 41.4517 -73.6361 234° Southwest 382 440 34,000  Level New York Center
Sun 11:49:41 AM 41.3883 -73.7522 234° Southwest 387 445 34,000  Level New York Center
Sun 11:50:41 AM 41.3272 -73.8681 235° Southwest 387 445 34,000  Level New York Center
Sun 11:51:39 AM 41.2681 -73.9786 235° Southwest 387 445 34,000  Level New York Center
Sun 11:52:40 AM 41.2044 -74.0942 234° Southwest 387 445 34,000  Level New York Center
Sun 11:53:40 AM 41.1389 -74.1983 230° Southwest 387 445 34,000  Level New York Center
Sun 11:54:41 AM 41.0792 -74.3164 236° Southwest 387 445 34,000  Level New York Center
Sun 11:55:41 AM 41.0175 -74.4314 235° Southwest 387 445 34,000  Level New York Center
Sun 11:56:39 AM 40.9556 -74.5433 234° Southwest 382 440 34,000  Level New York Center
Sun 11:57:40 AM 40.8917 -74.6525 232° Southwest 382 440 34,000  Level New York Center
Sun 11:58:41 AM 40.8294 -74.7642 234° Southwest 382 440 34,000  Level New York Center
Sun 11:59:41 AM 40.7736 -74.8786 237° Southwest 382 440 34,000  Level New York Center
Sun 12:00:39 PM 40.7192 -74.9986 239° Southwest 382 440 34,000  Level New York Center
Sun 12:01:40 PM 40.6669 -75.1156 240° Southwest 382 440 34,000  Level New York Center
Sun 12:02:40 PM 40.6147 -75.2353 240° Southwest 382 440 34,000  Level New York Center
Sun 12:03:42 PM 40.5600 -75.3547 239° Southwest 377 434 34,000  Level New York Center
Sun 12:04:39 PM 40.5053 -75.4742 239° Southwest 382 440 34,000  Level New York Center
Sun 12:05:39 PM 40.4506 -75.5958 239° Southwest 382 440 34,000  Level New York Center
Sun 12:06:40 PM 40.3956 -75.7144 239° Southwest 387 445 34,000  Level New York Center
Sun 12:07:41 PM 40.3383 -75.8331 238° Southwest 387 445 34,000  Level New York Center
Sun 12:08:41 PM 40.2769 -75.9508 236° Southwest 393 452 34,000  Level New York Center
Sun 12:09:40 PM 40.2239 -76.0694 240° Southwest 393 452 34,000  Level New York Center
Sun 12:10:41 PM 40.1681 -76.1956 240° Southwest 388 447 34,000  Level New York Center
Sun 12:11:41 PM 40.1083 -76.3156 237° Southwest 387 445 34,000  Level New York Center
Sun 12:12:39 PM 40.0567 -76.4336 240° Southwest 387 445 34,000  Level New York Center
Sun 12:13:39 PM 39.9989 -76.5536 238° Southwest 387 445 34,000  Level New York Center
Sun 12:15:50 PM 39.8783 -76.8108 239° Southwest 384 442 34,000  Level Washington Center
Sun 12:16:51 PM 39.8231 -76.9289 239° Southwest 384 442 34,000  Level Washington Center
Sun 12:17:51 PM 39.7675 -77.0439 238° Southwest 384 442 34,000  Level Washington Center
Sun 12:18:49 PM 39.7097 -77.1642 238° Southwest 384 442 34,000  Level Washington Center
Sun 12:19:49 PM 39.6539 -77.2869 239° Southwest 389 448 34,000  Level Washington Center
Sun 12:20:49 PM 39.6000 -77.4014 239° Southwest 389 448 34,000  Level Washington Center
Sun 12:21:50 PM 39.5419 -77.5211 238° Southwest 389 448 34,000  Level Washington Center
Sun 12:22:50 PM 39.4858 -77.6406 239° Southwest 389 448 34,000  Level Washington Center
Sun 12:23:51 PM 39.4294 -77.7597 239° Southwest 389 448 34,000  Level Washington Center
Sun 12:24:51 PM 39.3731 -77.8789 239° Southwest 394 453 34,000  Level Washington Center
Sun 12:25:52 PM 39.3250 -78.0036 244° Southwest 394 453 34,000  Level Washington Center
Sun 12:26:49 PM 39.2764 -78.1281 243° Southwest 389 448 34,000  Level Washington Center
Sun 12:27:50 PM 39.2258 -78.2522 242° Southwest 389 448 34,000  Level Washington Center
Sun 12:28:50 PM 39.1750 -78.3761 242° Southwest 389 448 34,000  Level Washington Center
Sun 12:29:51 PM 39.1264 -78.5000 243° Southwest 389 448 34,000  Level Washington Center
Sun 12:30:49 PM 39.0775 -78.6239 243° Southwest 389 448 34,000  Level Washington Center
Sun 12:31:50 PM 39.0264 -78.7447 241° Southwest 389 448 34,000  Level Washington Center
Sun 12:32:50 PM 38.9731 -78.8678 241° Southwest 389 448 34,000  Level Washington Center
Sun 12:33:51 PM 38.9258 -78.9939 244° Southwest 389 448 34,000  Level Washington Center
Sun 12:34:50 PM 38.8744 -79.1142 241° Southwest 389 448 34,000 -252 Level Washington Center
Sun 12:35:50 PM 38.8311 -79.2400 246° West 389 448 33,500 -744 Descending Washington Center
Sun 12:36:51 PM 38.8081 -79.3747 258° West 389 448 32,500 -1,210 Descending Washington Center
Sun 12:37:49 PM 38.7850 -79.5094 258° West 389 448 31,100 -2,237 Descending Washington Center
Sun 12:38:49 PM 38.7617 -79.6439 257° West 394 453 28,100 -2,902 Descending Washington Center
Sun 12:39:51 PM 38.7381 -79.7836 258° West 394 453 25,200 -1,525 Descending Washington Center
Sun 12:40:51 PM 38.7150 -79.9047 256° West 394 453 25,000 -101 Descending Washington Center
Sun 12:41:50 PM 38.6892 -80.0442 257° West 394 453 25,000  Level Washington Center
Sun 12:42:50 PM 38.6608 -80.1861 256° West 405 466 25,000 -850 Level Washington Center
Sun 12:43:50 PM 38.6317 -80.3439 257° West 416 479 23,300 -1,319 Descending Washington Center
Sun 12:44:21 PM 38.6214 -80.3958 256° West 412 474 23,000 -194 Descending Indianapolis Center
Sun 12:45:23 PM 38.5944 -80.5319 256° West 395 455 23,000  Level Indianapolis Center
Sun 12:46:25 PM 38.5633 -80.6867 256° West 400 460 23,000 -97 Level Indianapolis Center
Sun 12:47:27 PM 38.5347 -80.8394 257° West 409 471 22,800 -1,317 Descending Indianapolis Center
Sun 12:48:28 PM 38.5081 -80.9758 256° West 397 457 20,300 -2,634 Descending Indianapolis Center
Sun 12:49:30 PM 38.4833 -81.1111 257° West 390 449 17,400 -3,339 Descending Indianapolis Center
Sun 12:50:32 PM 38.4847 -81.2375 271° West 354 407 13,400 -4,548 Descending Indianapolis Center
Sun 12:51:34 PM 38.4875 -81.3494 272° West 313 360 8,000 -3,823 Descending Indianapolis Center
Sun 12:52:36 PM 38.5092 -81.4383 287° West 283 326 5,500 -1,935 Descending Indianapolis Center
Sun 12:53:38 PM 38.5578 -81.3967 34° Northeast 259 298 4,000 -919 Descending Indianapolis Center
Sun 12:54:40 PM 38.5114 -81.3894 173° South 222 255 3,600 -677 Descending Indianapolis Center
Sun 12:55:42 PM 38.4708 -81.4600 234° Southwest 212 244 2,600 -581 Descending Indianapolis Center
Sun 12:56:44 PM 38.4353 -81.5097 228° Southwest 197 227 2,400 -484 Descending Indianapolis Center
Sun 12:57:46 PM 38.4053 -81.5531 229° Southwest 176 203 1,600 -532 Descending Indianapolis Center
Sun 12:58:48 PM 38.3806 -81.5850 225° Southwest 161 185 1,300 -290 Descending Indianapolis Center

Login

Don't have an account? Register now (free) for customized features, flight alerts, and more!